createdAt,value
2022-12-26T00:01:02.434Z,3.83
2022-12-26T00:06:09.622Z,4.43
2022-12-26T00:11:17.675Z,3.85
2022-12-26T00:16:26.160Z,4.90
2022-12-26T00:21:31.383Z,6.07
2022-12-26T00:26:40.289Z,3.78
2022-12-26T00:31:45.606Z,2.50
2022-12-26T00:36:57.287Z,3.40
2022-12-26T00:42:10.635Z,2.50
2022-12-26T00:47:13.772Z,2.40
2022-12-26T00:52:19.173Z,1.75
2022-12-26T00:57:30.327Z,1.63
2022-12-26T01:02:38.840Z,1.80
2022-12-26T01:08:23.260Z,3.40
2022-12-26T01:13:10.645Z,3.13
2022-12-26T01:18:15.127Z,2.28
2022-12-26T01:23:18.299Z,2.13
2022-12-26T01:28:23.065Z,1.92
2022-12-26T01:33:25.912Z,3.03
2022-12-26T01:38:30.739Z,2.05
2022-12-26T01:43:47.728Z,2.40
2022-12-26T01:48:51.750Z,1.80
2022-12-26T01:54:38.613Z,1.88
2022-12-26T01:59:28.660Z,3.15
2022-12-26T02:04:56.653Z,1.70
2022-12-26T02:10:02.483Z,3.08
2022-12-26T02:15:08.819Z,3.03
2022-12-26T02:20:27.523Z,3.28
2022-12-26T02:26:11.497Z,1.40
2022-12-26T02:31:26.447Z,2.45
2022-12-26T02:36:31.905Z,1.27
2022-12-26T02:42:04.677Z,1.65
2022-12-26T02:47:16.188Z,2.58
2022-12-26T02:52:43.823Z,2.03
2022-12-26T02:58:39.159Z,2.35
2022-12-26T03:04:04.125Z,3.28
2022-12-26T03:15:05.914Z,2.28
2022-12-26T03:20:36.216Z,1.83
2022-12-26T03:26:06.953Z,4.25
2022-12-26T03:31:16.688Z,2.33
2022-12-26T03:36:58.569Z,2.67
2022-12-26T03:42:31.084Z,2.22
2022-12-26T03:48:07.109Z,3.20
2022-12-26T03:53:41.457Z,1.88
2022-12-26T03:59:22.471Z,2.00
2022-12-26T04:04:49.959Z,1.90
2022-12-26T04:11:03.265Z,2.65
2022-12-26T04:16:43.733Z,1.23
2022-12-26T04:22:26.356Z,2.47
2022-12-26T04:28:07.238Z,2.40
2022-12-26T04:33:37.730Z,2.78
2022-12-26T04:39:16.373Z,1.42
2022-12-26T04:44:25.691Z,2.72
2022-12-26T04:50:02.568Z,1.10
2022-12-26T04:55:07.909Z,1.70
2022-12-26T05:00:13.343Z,2.25
2022-12-26T05:05:37.578Z,1.30
2022-12-26T05:10:43.771Z,1.80
2022-12-26T05:16:28.623Z,1.98
2022-12-26T05:21:57.267Z,2.20
2022-12-26T05:27:27.558Z,1.65
2022-12-26T05:32:52.044Z,2.00
2022-12-26T05:38:00.146Z,3.28
2022-12-26T05:43:04.695Z,1.58
2022-12-26T05:48:13.183Z,1.70
2022-12-26T05:53:23.906Z,1.50
2022-12-26T05:58:38.654Z,2.22
2022-12-26T06:04:09.374Z,1.33
2022-12-26T06:09:16.592Z,1.05
2022-12-26T06:14:20.543Z,3.47
2022-12-26T06:19:27.663Z,2.17
2022-12-26T06:24:32.409Z,2.00
2022-12-26T06:29:37.728Z,1.60
2022-12-26T06:34:50.907Z,1.55
2022-12-26T06:39:59.325Z,1.75
2022-12-26T06:45:15.951Z,2.00
2022-12-26T06:50:30.514Z,2.50
2022-12-26T06:55:40.318Z,1.30
2022-12-26T07:01:02.268Z,1.05
2022-12-26T07:06:46.241Z,2.13
2022-12-26T07:12:11.258Z,1.33
2022-12-26T07:17:29.022Z,2.88
2022-12-26T07:44:32.775Z,1.80
2022-12-26T07:49:44.354Z,2.15
2022-12-26T07:55:11.178Z,1.73
2022-12-26T08:00:52.889Z,2.10
2022-12-26T08:06:06.175Z,1.17
2022-12-26T08:17:15.194Z,2.53
2022-12-26T08:22:28.068Z,2.47
2022-12-26T08:34:05.130Z,1.50
2022-12-26T08:45:18.874Z,0.95
2022-12-26T08:50:47.938Z,2.03
2022-12-26T11:10:35.601Z,1.30
2022-12-26T11:22:40.549Z,2.15
2022-12-26T11:28:13.778Z,1.30
2022-12-26T11:47:48.993Z,2.13
2022-12-26T11:52:58.853Z,1.00
2022-12-26T11:58:34.219Z,1.10
2022-12-26T12:05:06.671Z,1.98
2022-12-26T12:11:05.711Z,1.17
2022-12-26T12:16:37.276Z,1.50
2022-12-26T12:21:56.949Z,1.25
2022-12-26T12:39:11.624Z,0.98
2022-12-26T12:44:56.684Z,0.85
2022-12-26T12:56:41.743Z,0.85
2022-12-26T13:01:51.979Z,1.08
2022-12-26T13:07:13.941Z,0.85
2022-12-26T13:12:32.020Z,1.92
2022-12-26T13:18:34.975Z,1.13
2022-12-26T13:24:20.775Z,1.60
2022-12-26T13:29:49.475Z,2.17
2022-12-26T13:35:13.148Z,0.90
2022-12-26T13:40:40.722Z,0.52
2022-12-26T13:46:13.615Z,1.40
2022-12-26T13:51:42.640Z,0.80
2022-12-26T13:57:45.630Z,1.00
2022-12-26T14:03:19.768Z,1.33
2022-12-26T14:14:56.953Z,1.40
2022-12-26T14:27:10.704Z,0.68
2022-12-26T14:33:01.254Z,0.43
2022-12-26T14:39:12.158Z,0.40
2022-12-26T14:44:29.757Z,0.65
2022-12-26T14:49:41.017Z,0.60
2022-12-26T15:00:23.274Z,1.52
2022-12-26T15:05:58.672Z,1.05
2022-12-26T15:11:22.305Z,0.60
2022-12-26T15:17:14.757Z,1.00
2022-12-26T15:22:54.129Z,1.25
2022-12-26T15:40:20.176Z,0.70
2022-12-26T15:46:53.268Z,1.13
2022-12-26T15:52:53.151Z,0.80
2022-12-26T15:58:37.610Z,0.65
2022-12-26T16:03:57.899Z,0.70
2022-12-26T16:09:37.706Z,0.43
2022-12-26T16:14:45.684Z,1.10
2022-12-26T16:20:21.350Z,2.67
2022-12-26T16:25:40.062Z,1.20
2022-12-26T16:31:34.795Z,1.58
2022-12-26T16:37:21.326Z,1.90
2022-12-26T16:56:40.459Z,1.73
2022-12-26T17:14:53.859Z,1.77
2022-12-26T17:32:21.900Z,1.52
2022-12-26T17:37:39.019Z,1.92
2022-12-26T18:22:18.125Z,2.72
2022-12-26T18:27:38.769Z,3.17
2022-12-26T18:32:56.542Z,2.40
2022-12-26T18:38:26.295Z,3.42
2022-12-26T18:43:40.004Z,5.10
2022-12-26T18:48:58.564Z,3.20
2022-12-26T18:54:03.627Z,2.60
2022-12-26T18:59:06.473Z,2.47
2022-12-26T19:04:15.763Z,2.53
2022-12-26T19:09:18.279Z,2.83
2022-12-26T19:14:22.362Z,4.38
2022-12-26T19:19:26.834Z,2.60
2022-12-26T19:24:29.622Z,2.78
2022-12-26T19:29:32.269Z,2.35
2022-12-26T19:34:34.995Z,2.22
2022-12-26T19:39:40.203Z,2.53
2022-12-26T19:44:44.907Z,2.50
2022-12-26T19:49:49.376Z,2.80
2022-12-26T19:54:55.369Z,3.22
2022-12-26T20:20:10.184Z,4.93
2022-12-26T20:26:27.712Z,3.80
2022-12-26T20:32:56.201Z,3.47
2022-12-26T20:43:57.351Z,2.90
2022-12-26T20:50:06.457Z,3.60
2022-12-26T20:55:49.678Z,2.70
2022-12-26T21:01:34.869Z,3.47
2022-12-26T21:07:02.322Z,7.25
2022-12-26T21:24:09.581Z,3.20
2022-12-26T21:29:32.683Z,2.88
2022-12-26T21:40:49.495Z,3.92
2022-12-26T21:46:01.580Z,5.82
2022-12-26T21:56:31.471Z,4.40
2022-12-26T22:02:40.114Z,4.03
2022-12-26T22:07:48.163Z,3.83
2022-12-26T22:18:52.311Z,4.45
2022-12-26T22:24:32.944Z,5.10
2022-12-26T22:29:38.695Z,6.95
2022-12-26T22:35:01.463Z,4.40
2022-12-26T22:45:58.628Z,3.53
2022-12-26T22:56:47.807Z,3.25
2022-12-26T23:02:05.646Z,1.70
2022-12-26T23:07:28.538Z,3.40
2022-12-26T23:12:43.679Z,2.33
2022-12-26T23:18:33.692Z,1.58
2022-12-26T23:34:28.829Z,1.15
2022-12-26T23:39:51.914Z,1.17
2022-12-26T23:44:57.390Z,1.42
2022-12-26T23:50:02.498Z,1.98
2022-12-26T23:55:09.740Z,2.35
